createdAt,value
2018-11-11T00:01:29.061Z,16.20
2018-11-11T00:03:57.214Z,15.77
2018-11-11T00:06:25.405Z,16.70
2018-11-11T00:08:53.612Z,17.03
2018-11-11T00:11:21.780Z,16.00
2018-11-11T00:13:49.958Z,18.07
2018-11-11T00:16:18.149Z,15.87
2018-11-11T00:18:46.366Z,16.50
2018-11-11T00:21:14.525Z,16.53
2018-11-11T00:23:42.686Z,17.20
2018-11-11T00:26:10.857Z,15.90
2018-11-11T00:28:39.122Z,16.13
2018-11-11T00:31:07.198Z,14.87
2018-11-11T00:33:35.345Z,15.17
2018-11-11T00:36:03.518Z,13.53
2018-11-11T00:38:31.682Z,13.77
2018-11-11T00:40:59.874Z,11.40
2018-11-11T00:43:28.040Z,10.60
2018-11-11T00:45:56.206Z,10.03
2018-11-11T00:48:24.397Z,11.43
2018-11-11T00:50:53.329Z,11.40
2018-11-11T00:53:21.851Z,11.00
2018-11-11T00:55:50.002Z,11.60
2018-11-11T00:58:18.241Z,13.60
2018-11-11T01:00:46.393Z,14.30
2018-11-11T01:03:14.582Z,14.90
2018-11-11T01:05:42.758Z,15.23
2018-11-11T01:08:10.873Z,18.00
2018-11-11T01:10:39.034Z,16.50
2018-11-11T01:13:07.194Z,16.77
2018-11-11T01:15:35.337Z,17.30
2018-11-11T01:18:03.516Z,17.87
2018-11-11T01:20:31.781Z,16.93
2018-11-11T01:22:59.965Z,17.73
2018-11-11T01:25:28.181Z,17.10
2018-11-11T01:27:56.341Z,18.90
2018-11-11T01:30:24.505Z,17.70
2018-11-11T01:32:52.641Z,18.07
2018-11-11T01:35:20.830Z,16.83
2018-11-11T01:37:48.984Z,17.73
2018-11-11T01:40:17.188Z,17.33
2018-11-11T01:42:45.404Z,15.90
2018-11-11T01:45:19.381Z,16.90
2018-11-11T01:47:48.385Z,16.37
2018-11-11T01:50:16.829Z,15.23
2018-11-11T01:52:45.006Z,16.13
2018-11-11T01:55:13.687Z,15.83
2018-11-11T01:57:41.892Z,16.50
2018-11-11T02:00:14.253Z,16.17
2018-11-11T02:02:42.937Z,16.10
2018-11-11T02:05:12.129Z,16.13
2018-11-11T02:07:41.010Z,17.70
2018-11-11T02:10:10.011Z,16.50
2018-11-11T02:12:39.109Z,16.67
2018-11-11T02:15:07.993Z,17.57
2018-11-11T02:17:36.204Z,16.03
2018-11-11T02:20:05.005Z,15.17
2018-11-11T02:22:33.212Z,16.20
2018-11-11T02:25:01.342Z,15.20
2018-11-11T02:27:29.517Z,15.33
2018-11-11T02:29:57.735Z,15.67
2018-11-11T02:32:25.909Z,16.33
2018-11-11T02:34:54.110Z,15.07
2018-11-11T02:37:22.288Z,14.13
2018-11-11T02:39:50.481Z,14.87
2018-11-11T02:42:18.660Z,14.90
2018-11-11T02:44:46.832Z,14.90
2018-11-11T02:47:15.035Z,14.73
2018-11-11T02:49:43.209Z,14.50
2018-11-11T02:52:11.378Z,14.17
2018-11-11T02:54:39.541Z,13.83
2018-11-11T02:57:07.714Z,14.77
2018-11-11T02:59:35.939Z,14.07
2018-11-11T03:02:04.111Z,14.20
2018-11-11T03:04:32.307Z,14.77
2018-11-11T03:07:00.450Z,12.77
2018-11-11T03:09:28.625Z,13.27
2018-11-11T03:11:57.390Z,13.37
2018-11-11T03:14:25.518Z,13.93
2018-11-11T03:16:53.687Z,13.60
2018-11-11T03:19:21.841Z,13.10
2018-11-11T03:21:50.035Z,12.83
2018-11-11T03:24:18.193Z,13.30
2018-11-11T03:26:46.400Z,14.30
2018-11-11T03:31:44.669Z,14.20
2018-11-11T03:34:13.137Z,13.80
2018-11-11T03:36:41.321Z,14.83
2018-11-11T03:39:10.118Z,14.57
2018-11-11T03:41:38.865Z,14.80
2018-11-11T03:44:07.103Z,15.10
2018-11-11T03:46:35.298Z,13.50
2018-11-11T03:49:03.502Z,15.13
2018-11-11T03:51:31.665Z,14.40
2018-11-11T03:54:00.052Z,13.97
2018-11-11T03:56:28.213Z,13.20
2018-11-11T03:58:56.443Z,13.10
2018-11-11T04:01:24.550Z,13.10
2018-11-11T04:03:52.703Z,15.00
2018-11-11T04:06:20.918Z,15.40
2018-11-11T04:08:49.077Z,14.50
2018-11-11T04:11:17.970Z,14.60
2018-11-11T04:13:46.154Z,13.67
2018-11-11T04:16:14.329Z,14.57
2018-11-11T04:18:42.505Z,13.60
2018-11-11T04:21:10.711Z,13.53
2018-11-11T04:23:38.882Z,14.43
2018-11-11T04:26:07.013Z,15.07
2018-11-11T04:28:35.151Z,13.80
2018-11-11T04:31:03.402Z,14.63
2018-11-11T04:33:31.563Z,14.00
2018-11-11T04:35:59.772Z,15.20
2018-11-11T04:38:27.943Z,15.00
2018-11-11T04:40:56.149Z,15.43
2018-11-11T04:43:24.293Z,14.27
2018-11-11T04:45:52.423Z,13.97
2018-11-11T04:48:20.613Z,15.40
2018-11-11T04:50:48.791Z,15.57
2018-11-11T04:53:16.985Z,16.07
2018-11-11T04:55:45.148Z,15.33
2018-11-11T04:58:14.353Z,15.90
2018-11-11T05:00:42.526Z,16.60
2018-11-11T05:03:10.717Z,16.17
2018-11-11T05:05:39.630Z,16.60
2018-11-11T05:08:07.799Z,15.57
2018-11-11T05:10:35.973Z,16.07
2018-11-11T05:13:04.389Z,18.20
2018-11-11T05:15:32.616Z,15.17
2018-11-11T05:18:00.814Z,15.43
2018-11-11T05:20:28.968Z,14.47
2018-11-11T05:22:57.143Z,14.77
2018-11-11T05:25:25.334Z,15.47
2018-11-11T05:27:53.485Z,16.03
2018-11-11T05:30:21.682Z,14.60
2018-11-11T05:32:50.722Z,14.93
2018-11-11T05:35:18.875Z,14.60
2018-11-11T05:37:47.035Z,16.67
2018-11-11T05:40:15.197Z,15.47
2018-11-11T05:42:44.054Z,16.00
2018-11-11T05:45:13.455Z,15.60
2018-11-11T05:47:42.234Z,16.33
2018-11-11T05:50:12.489Z,15.83
2018-11-11T05:52:40.944Z,16.57
2018-11-11T05:55:09.509Z,14.77
2018-11-11T05:57:37.809Z,16.13
2018-11-11T06:00:07.825Z,16.43
2018-11-11T06:02:36.009Z,16.03
2018-11-11T06:05:04.569Z,16.67
2018-11-11T06:07:32.710Z,17.17
2018-11-11T06:10:00.875Z,18.10
2018-11-11T06:12:29.093Z,17.87
2018-11-11T06:14:57.245Z,18.43
2018-11-11T06:17:25.465Z,17.20
2018-11-11T06:19:53.617Z,14.30
2018-11-11T06:22:21.801Z,14.50
2018-11-11T06:24:50.022Z,14.07
2018-11-11T06:27:18.166Z,13.30
2018-11-11T06:29:46.337Z,10.40
2018-11-11T06:32:14.517Z,8.97
2018-11-11T06:34:42.715Z,9.00
2018-11-11T06:37:10.866Z,7.97
2018-11-11T06:39:39.037Z,9.70
2018-11-11T06:42:07.203Z,10.63
2018-11-11T06:44:35.341Z,12.10
2018-11-11T06:47:03.531Z,12.90
2018-11-11T06:49:31.681Z,12.30
2018-11-11T06:51:59.876Z,11.67
2018-11-11T06:54:28.050Z,10.20
2018-11-11T06:56:56.218Z,9.63
2018-11-11T06:59:24.728Z,8.63
2018-11-11T07:01:53.221Z,8.07
2018-11-11T07:04:21.390Z,9.40
2018-11-11T07:06:49.536Z,7.87
2018-11-11T07:09:17.725Z,7.80
2018-11-11T07:11:45.901Z,8.13
2018-11-11T07:14:14.221Z,7.27
2018-11-11T07:16:42.322Z,7.10
2018-11-11T07:19:10.517Z,7.83
2018-11-11T07:21:38.893Z,7.03
2018-11-11T07:24:07.188Z,7.90
2018-11-11T07:26:35.377Z,7.13
2018-11-11T07:29:03.741Z,7.83
2018-11-11T07:31:31.958Z,7.70
2018-11-11T07:34:00.052Z,7.37
2018-11-11T07:36:28.166Z,6.90
2018-11-11T07:38:56.318Z,5.80
2018-11-11T07:41:24.482Z,5.87
2018-11-11T07:43:52.646Z,5.43
2018-11-11T07:46:20.838Z,5.67
2018-11-11T07:48:49.009Z,6.17
2018-11-11T07:51:17.178Z,5.50
2018-11-11T07:53:45.302Z,5.43
2018-11-11T07:56:13.539Z,6.60
2018-11-11T07:58:41.754Z,6.80
2018-11-11T08:01:09.913Z,6.20
2018-11-11T08:03:38.057Z,6.00
2018-11-11T08:06:06.252Z,6.00
2018-11-11T08:08:34.419Z,6.10
2018-11-11T08:11:13.892Z,8.20
2018-11-11T08:13:41.967Z,6.43
2018-11-11T08:16:10.171Z,7.20
2018-11-11T08:18:38.320Z,7.80
2018-11-11T08:21:06.478Z,8.47
2018-11-11T08:23:34.732Z,7.70
2018-11-11T08:26:02.885Z,6.60
2018-11-11T08:28:31.109Z,6.77
2018-11-11T08:30:59.270Z,6.20
2018-11-11T08:33:27.577Z,6.67
2018-11-11T08:35:55.936Z,6.40
2018-11-11T08:38:24.113Z,6.30
2018-11-11T08:40:52.283Z,6.23
2018-11-11T08:43:20.455Z,5.60
2018-11-11T08:45:48.600Z,5.40
2018-11-11T08:48:16.791Z,5.37
2018-11-11T08:50:44.942Z,6.33
2018-11-11T08:53:13.156Z,5.67
2018-11-11T08:55:41.316Z,5.30
2018-11-11T08:58:09.621Z,4.57
2018-11-11T09:00:37.727Z,4.90
2018-11-11T09:03:06.390Z,4.60
2018-11-11T09:05:34.527Z,4.23
2018-11-11T09:08:02.670Z,4.90
2018-11-11T09:10:30.821Z,5.33
2018-11-11T09:12:58.978Z,3.90
2018-11-11T09:15:27.164Z,4.10
2018-11-11T09:17:55.308Z,4.90
2018-11-11T09:20:23.605Z,4.93
2018-11-11T09:22:51.811Z,4.40
2018-11-11T09:25:20.039Z,5.03
2018-11-11T09:27:48.114Z,4.47
2018-11-11T09:30:16.303Z,4.13
2018-11-11T09:32:44.503Z,3.87
2018-11-11T09:35:12.646Z,4.20
2018-11-11T09:37:40.973Z,4.17
2018-11-11T09:40:10.151Z,4.07
2018-11-11T09:42:38.413Z,3.93
2018-11-11T09:45:08.775Z,5.50
2018-11-11T09:47:36.975Z,5.00
2018-11-11T09:50:07.479Z,3.97
2018-11-11T09:52:35.679Z,4.50
2018-11-11T09:55:03.741Z,4.30
2018-11-11T09:57:31.944Z,4.77
2018-11-11T10:00:00.271Z,4.67
2018-11-11T10:02:28.258Z,4.30
2018-11-11T10:05:00.035Z,4.23
2018-11-11T10:08:04.399Z,4.00
2018-11-11T10:10:36.077Z,3.73
2018-11-11T10:13:08.994Z,3.73
2018-11-11T10:15:45.214Z,3.60
2018-11-11T10:20:26.248Z,3.87
2018-11-11T10:23:01.639Z,3.63
2018-11-11T10:25:35.078Z,3.43
2018-11-11T10:28:09.889Z,3.47
2018-11-11T10:30:46.486Z,3.03
2018-11-11T10:33:24.664Z,2.90
2018-11-11T10:35:57.937Z,4.10
2018-11-11T10:38:37.557Z,3.00
2018-11-11T10:41:11.357Z,2.83
2018-11-11T10:43:44.532Z,3.07
2018-11-11T10:46:21.409Z,3.30
2018-11-11T10:48:53.117Z,2.63
2018-11-11T10:51:21.277Z,3.10
2018-11-11T10:53:50.625Z,3.27
2018-11-11T10:56:18.751Z,2.30
2018-11-11T10:58:46.892Z,2.53
2018-11-11T11:01:20.486Z,2.70
2018-11-11T11:03:48.633Z,2.60
2018-11-11T11:06:16.778Z,2.50
2018-11-11T11:08:50.510Z,2.53
2018-11-11T11:11:18.658Z,2.63
2018-11-11T11:13:46.885Z,2.33
2018-11-11T11:16:14.983Z,2.27
2018-11-11T11:18:43.083Z,2.40
2018-11-11T11:21:11.242Z,2.37
2018-11-11T11:23:39.389Z,1.97
2018-11-11T11:26:07.529Z,1.90
2018-11-11T11:28:35.697Z,3.03
2018-11-11T11:31:03.837Z,2.07
2018-11-11T11:33:32.001Z,2.10
2018-11-11T11:36:00.135Z,2.20
2018-11-11T11:38:28.428Z,2.00
2018-11-11T11:40:56.510Z,1.97
2018-11-11T11:43:24.682Z,1.93
2018-11-11T11:45:54.164Z,1.80
2018-11-11T11:48:22.514Z,2.07
2018-11-11T11:50:50.925Z,1.97
2018-11-11T11:53:19.076Z,1.70
2018-11-11T11:55:47.229Z,1.60
2018-11-11T11:58:20.313Z,1.67
2018-11-11T12:00:48.500Z,1.90
2018-11-11T12:03:16.741Z,2.40
2018-11-11T12:05:45.537Z,2.17
2018-11-11T12:08:13.760Z,2.23
2018-11-11T12:10:42.061Z,1.90
2018-11-11T12:13:11.301Z,2.73
2018-11-11T12:15:40.155Z,2.57
2018-11-11T12:18:08.341Z,1.60
2018-11-11T12:20:37.109Z,1.60
2018-11-11T12:23:05.948Z,1.83
2018-11-11T12:25:34.277Z,1.53
2018-11-11T12:28:02.454Z,2.00
2018-11-11T12:30:30.761Z,1.80
2018-11-11T12:32:59.014Z,1.57
2018-11-11T12:35:27.180Z,1.70
2018-11-11T12:37:55.336Z,2.17
2018-11-11T12:40:23.605Z,1.93
2018-11-11T12:42:51.628Z,1.90
2018-11-11T12:45:19.805Z,1.77
2018-11-11T12:47:48.027Z,1.77
2018-11-11T12:50:16.242Z,1.90
2018-11-11T12:52:44.377Z,1.70
2018-11-11T12:55:12.580Z,1.93
2018-11-11T12:57:40.819Z,1.47
2018-11-11T13:00:11.893Z,1.77
2018-11-11T13:02:40.194Z,2.50
2018-11-11T13:05:09.053Z,1.70
2018-11-11T13:07:37.270Z,1.60
2018-11-11T13:10:08.277Z,1.90
2018-11-11T13:12:36.422Z,1.90
2018-11-11T13:15:05.125Z,1.70
2018-11-11T13:17:33.276Z,1.60
2018-11-11T13:20:01.740Z,1.50
2018-11-11T13:22:30.616Z,1.77
2018-11-11T13:24:58.695Z,2.20
2018-11-11T13:27:26.880Z,1.53
2018-11-11T13:29:55.169Z,1.77
2018-11-11T13:32:23.337Z,1.37
2018-11-11T13:34:51.518Z,1.63
2018-11-11T13:37:19.697Z,1.67
2018-11-11T13:39:47.873Z,1.97
2018-11-11T13:42:16.041Z,1.90
2018-11-11T13:44:44.226Z,2.00
2018-11-11T13:47:12.409Z,1.20
2018-11-11T13:49:40.601Z,1.83
2018-11-11T13:52:08.822Z,1.63
2018-11-11T13:54:37.247Z,2.27
2018-11-11T13:57:07.578Z,2.10
2018-11-11T13:59:35.764Z,1.90
2018-11-11T14:02:04.077Z,1.87
2018-11-11T14:04:32.289Z,1.77
2018-11-11T14:07:00.457Z,3.07
2018-11-11T14:09:28.598Z,1.83
2018-11-11T14:11:56.790Z,2.27
2018-11-11T14:14:24.977Z,1.40
2018-11-11T14:16:53.106Z,2.27
2018-11-11T14:19:21.574Z,1.90
2018-11-11T14:21:50.946Z,1.87
2018-11-11T14:24:19.092Z,1.90
2018-11-11T14:26:47.346Z,2.30
2018-11-11T14:29:16.653Z,2.93
2018-11-11T14:31:44.841Z,2.00
2018-11-11T14:34:12.978Z,1.93
2018-11-11T14:36:41.177Z,2.07
2018-11-11T14:39:11.922Z,2.77
2018-11-11T14:41:40.714Z,1.80
2018-11-11T14:44:09.099Z,1.80
2018-11-11T14:46:37.557Z,1.90
2018-11-11T14:49:06.440Z,2.00
2018-11-11T14:51:34.577Z,1.50
2018-11-11T14:54:03.018Z,1.60
2018-11-11T14:56:31.265Z,1.83
2018-11-11T14:58:59.858Z,2.70
2018-11-11T15:01:28.003Z,2.00
2018-11-11T15:03:56.130Z,1.70
2018-11-11T15:06:24.277Z,1.80
2018-11-11T15:08:52.520Z,2.20
2018-11-11T15:11:20.662Z,2.20
2018-11-11T15:13:48.823Z,2.10
2018-11-11T15:16:17.021Z,2.07
2018-11-11T15:18:45.209Z,1.33
2018-11-11T15:21:15.166Z,1.87
2018-11-11T15:23:46.003Z,2.23
2018-11-11T15:26:16.217Z,1.93
2018-11-11T15:28:44.490Z,2.60
2018-11-11T15:31:12.710Z,1.67
2018-11-11T15:33:41.214Z,1.60
2018-11-11T15:36:12.456Z,2.03
2018-11-11T15:38:40.576Z,1.63
2018-11-11T15:41:08.794Z,1.80
2018-11-11T15:43:36.942Z,1.97
2018-11-11T15:46:05.107Z,1.57
2018-11-11T15:48:33.272Z,1.60
2018-11-11T15:51:01.466Z,1.50
2018-11-11T15:53:29.861Z,1.97
2018-11-11T15:55:58.031Z,1.30
2018-11-11T15:58:26.382Z,1.90
2018-11-11T16:00:54.490Z,1.80
2018-11-11T16:03:22.714Z,1.57
2018-11-11T16:05:50.882Z,2.00
2018-11-11T16:08:19.139Z,1.87
2018-11-11T16:10:47.413Z,2.00
2018-11-11T16:13:15.740Z,2.27
2018-11-11T16:15:43.909Z,2.17
2018-11-11T16:18:13.189Z,2.27
2018-11-11T16:20:42.145Z,2.13
2018-11-11T16:23:10.855Z,1.60
2018-11-11T16:25:39.085Z,2.03
2018-11-11T16:28:07.502Z,1.70
2018-11-11T16:30:36.856Z,1.90
2018-11-11T16:33:06.158Z,1.97
2018-11-11T16:35:34.306Z,2.10
2018-11-11T16:38:02.756Z,2.20
2018-11-11T16:40:33.289Z,2.50
2018-11-11T16:43:01.572Z,2.60
2018-11-11T16:45:30.761Z,2.17
2018-11-11T16:47:58.988Z,2.10
2018-11-11T16:50:30.758Z,2.47
2018-11-11T16:53:00.456Z,2.30
2018-11-11T16:55:29.738Z,3.67
2018-11-11T16:57:57.867Z,4.40
2018-11-11T17:00:27.363Z,3.13
2018-11-11T17:02:56.168Z,2.73
2018-11-11T17:05:25.589Z,2.90
2018-11-11T17:07:54.105Z,2.57
2018-11-11T17:10:27.542Z,2.87
2018-11-11T17:12:56.833Z,2.20
2018-11-11T17:15:26.365Z,2.10
2018-11-11T17:17:54.529Z,2.10
2018-11-11T17:20:23.632Z,2.03
2018-11-11T17:22:52.412Z,2.00
2018-11-11T17:25:21.541Z,2.40
2018-11-11T17:27:49.977Z,2.70
2018-11-11T17:30:22.561Z,2.73
2018-11-11T17:32:51.282Z,3.20
2018-11-11T17:35:19.493Z,2.43
2018-11-11T17:37:47.752Z,2.63
2018-11-11T17:40:18.317Z,2.30
2018-11-11T17:42:47.626Z,2.97
2018-11-11T17:45:16.104Z,2.50
2018-11-11T17:47:44.889Z,2.93
2018-11-11T17:50:17.180Z,3.00
2018-11-11T17:52:45.393Z,3.10
2018-11-11T17:55:14.982Z,3.60
2018-11-11T17:57:44.138Z,3.10
2018-11-11T18:00:14.789Z,3.30
2018-11-11T18:02:43.143Z,3.53
2018-11-11T18:05:12.247Z,3.23
2018-11-11T18:07:40.951Z,3.90
2018-11-11T18:10:11.029Z,3.40
2018-11-11T18:12:39.214Z,3.50
2018-11-11T18:15:08.502Z,3.10
2018-11-11T18:17:36.705Z,3.10
2018-11-11T18:20:07.528Z,4.53
2018-11-11T18:22:35.631Z,4.10
2018-11-11T18:25:04.086Z,4.00
2018-11-11T18:27:32.430Z,4.30
2018-11-11T18:30:00.479Z,3.53
2018-11-11T18:32:28.642Z,3.97
2018-11-11T18:34:56.812Z,4.40
2018-11-11T18:37:25.106Z,4.27
2018-11-11T18:39:53.317Z,4.23
2018-11-11T18:42:21.475Z,4.27
2018-11-11T18:44:49.667Z,4.30
2018-11-11T18:47:17.837Z,3.77
2018-11-11T18:49:45.968Z,3.20
2018-11-11T18:52:14.190Z,3.60
2018-11-11T18:54:42.371Z,3.93
2018-11-11T18:57:10.656Z,4.60
2018-11-11T18:59:38.707Z,4.50
2018-11-11T19:02:06.874Z,6.37
2018-11-11T19:04:34.986Z,4.83
2018-11-11T19:07:03.160Z,5.00
2018-11-11T19:09:31.322Z,4.77
2018-11-11T19:11:59.730Z,5.90
2018-11-11T19:14:27.877Z,5.50
2018-11-11T19:16:56.030Z,5.00
2018-11-11T19:19:24.219Z,4.90
2018-11-11T19:21:52.389Z,4.97
2018-11-11T19:24:20.635Z,4.53
2018-11-11T19:26:48.714Z,4.83
2018-11-11T19:29:16.869Z,5.03
2018-11-11T19:31:45.078Z,5.33
2018-11-11T19:34:13.242Z,5.70
2018-11-11T19:36:41.526Z,6.90
2018-11-11T19:39:11.482Z,6.00
2018-11-11T19:41:40.529Z,6.53
2018-11-11T19:44:09.321Z,5.80
2018-11-11T19:46:37.511Z,5.00
2018-11-11T19:49:06.057Z,5.40
2018-11-11T19:51:34.347Z,4.70
2018-11-11T19:54:02.946Z,4.40
2018-11-11T19:56:31.226Z,4.73
2018-11-11T19:58:59.382Z,4.77
2018-11-11T20:01:27.608Z,5.03
2018-11-11T20:03:55.785Z,5.50
2018-11-11T20:06:23.961Z,4.73
2018-11-11T20:08:52.118Z,5.33
2018-11-11T20:11:20.287Z,5.87
2018-11-11T20:13:48.472Z,5.27
2018-11-11T20:16:16.658Z,4.50
2018-11-11T20:18:44.853Z,4.90
2018-11-11T20:21:13.046Z,4.23
2018-11-11T20:23:41.242Z,4.93
2018-11-11T20:26:09.353Z,4.50
2018-11-11T20:28:37.549Z,4.50
2018-11-11T20:31:05.722Z,4.90
2018-11-11T20:33:33.931Z,4.50
2018-11-11T20:36:02.155Z,4.93
2018-11-11T20:38:30.271Z,4.17
2018-11-11T20:40:58.479Z,4.20
2018-11-11T20:43:26.753Z,4.70
2018-11-11T20:45:54.816Z,4.40
2018-11-11T20:48:23.246Z,4.33
2018-11-11T20:50:51.457Z,4.00
2018-11-11T20:53:19.635Z,4.00
2018-11-11T20:55:47.893Z,3.50
2018-11-11T20:58:15.993Z,4.20
2018-11-11T21:00:44.223Z,3.60
2018-11-11T21:03:12.405Z,3.90
2018-11-11T21:05:40.568Z,3.27
2018-11-11T21:08:08.793Z,5.27
2018-11-11T21:10:37.257Z,4.60
2018-11-11T21:13:05.581Z,3.40
2018-11-11T21:15:33.767Z,4.63
2018-11-11T21:18:01.949Z,3.60
2018-11-11T21:20:31.414Z,4.20
2018-11-11T21:22:59.633Z,4.37
2018-11-11T21:25:27.845Z,4.27
2018-11-11T21:27:55.993Z,4.20
2018-11-11T21:30:25.441Z,4.40
2018-11-11T21:32:53.605Z,4.73
2018-11-11T21:35:21.773Z,3.83
2018-11-11T21:37:50.036Z,4.73
2018-11-11T21:40:19.465Z,4.23
2018-11-11T21:42:48.589Z,4.97
2018-11-11T21:45:18.066Z,5.60
2018-11-11T21:47:46.437Z,5.17
2018-11-11T21:50:18.933Z,5.00
2018-11-11T21:52:53.590Z,4.90
2018-11-11T21:55:21.818Z,4.90
2018-11-11T21:57:49.954Z,5.00
2018-11-11T22:00:18.085Z,5.10
2018-11-11T22:02:46.269Z,4.70
2018-11-11T22:05:14.425Z,5.60
2018-11-11T22:07:42.594Z,5.50
2018-11-11T22:10:13.442Z,5.33
2018-11-11T22:12:41.666Z,6.30
2018-11-11T22:15:11.006Z,4.97
2018-11-11T22:17:39.194Z,4.73
2018-11-11T22:20:08.363Z,4.80
2018-11-11T22:22:36.541Z,6.90
2018-11-11T22:25:05.025Z,4.83
2018-11-11T22:27:33.227Z,4.97
2018-11-11T22:30:01.370Z,5.13
2018-11-11T22:32:29.590Z,5.60
2018-11-11T22:34:57.745Z,5.13
2018-11-11T22:37:25.918Z,5.67
2018-11-11T22:39:54.169Z,5.40
2018-11-11T22:42:22.384Z,5.67
2018-11-11T22:44:50.465Z,5.50
2018-11-11T22:47:18.699Z,5.40
2018-11-11T22:49:46.874Z,7.20
2018-11-11T22:52:15.018Z,6.50
2018-11-11T22:54:43.165Z,6.30
2018-11-11T22:57:12.026Z,6.73
2018-11-11T22:59:40.198Z,5.90
2018-11-11T23:02:08.377Z,6.60
2018-11-11T23:04:36.571Z,5.90
2018-11-11T23:07:04.777Z,7.70
2018-11-11T23:09:33.053Z,7.80
2018-11-11T23:12:01.229Z,8.27
2018-11-11T23:14:29.390Z,7.70
2018-11-11T23:16:58.199Z,6.83
2018-11-11T23:19:26.371Z,7.20
2018-11-11T23:21:54.533Z,7.83
2018-11-11T23:24:22.734Z,6.60
2018-11-11T23:26:50.875Z,5.47
2018-11-11T23:29:19.685Z,4.83
2018-11-11T23:31:47.884Z,6.33
2018-11-11T23:34:16.282Z,5.93
2018-11-11T23:36:44.456Z,6.87
2018-11-11T23:39:12.606Z,6.67
2018-11-11T23:41:40.761Z,7.17
2018-11-11T23:44:09.487Z,6.70
2018-11-11T23:46:38.327Z,7.20
2018-11-11T23:49:06.726Z,6.63
2018-11-11T23:51:35.084Z,6.23
2018-11-11T23:54:03.229Z,6.53
2018-11-11T23:56:31.429Z,6.47
2018-11-11T23:58:59.631Z,6.20
